Terminal Aerodrome Forecast
Issued by NWS Boston, MA

Home | Current Version | Previous Version | Text Only | Print | Product List | Glossary On
Versions: 1 2 3 4 5 6 7 8 9 10 11 12 13 14 15 16 17 18 19 20
000
FTUS41 KBOX 290541
TAFPVD
TAF
KPVD 290541Z 2906/3006 22004KT P6SM FEW250
     FM290800 VRB03KT P6SM SCT050
     FM290900 VRB03KT P6SM SCT035
     FM291300 02005KT P6SM SCT035
     FM291500 05005KT P6SM SCT035
     FM291700 13006KT P6SM SCT035
     FM292000 17008KT P6SM SCT035
     FM300300 18006KT 6SM BR VCSH BKN008=

USA.gov is the U.S. government's official web portal to all federal, state and local government web resources and services.